createdAt,value
2019-05-03T00:00:43.882Z,1.50
2019-05-03T00:03:15.326Z,1.70
2019-05-03T00:05:55.544Z,1.50
2019-05-03T00:08:25.537Z,1.53
2019-05-03T00:11:05.589Z,1.60
2019-05-03T00:13:36.053Z,1.57
2019-05-03T00:16:21.972Z,1.83
2019-05-03T00:18:53.097Z,1.90
2019-05-03T00:21:24.168Z,1.63
2019-05-03T00:23:55.122Z,1.57
2019-05-03T00:26:26.105Z,1.70
2019-05-03T00:28:56.977Z,1.87
2019-05-03T00:31:27.450Z,1.53
2019-05-03T00:34:02.229Z,1.80
2019-05-03T00:36:44.018Z,1.80
2019-05-03T00:39:34.710Z,1.80
2019-05-03T00:42:07.384Z,1.80
2019-05-03T00:44:37.850Z,1.67
2019-05-03T00:47:10.361Z,1.80
2019-05-03T00:49:42.608Z,1.53
2019-05-03T00:52:13.751Z,1.77
2019-05-03T00:54:45.769Z,1.83
2019-05-03T00:57:15.701Z,1.70
2019-05-03T00:59:48.284Z,1.70
2019-05-03T01:02:22.589Z,1.90
2019-05-03T01:04:52.494Z,1.83
2019-05-03T01:07:23.414Z,1.80
2019-05-03T01:09:54.841Z,1.57
2019-05-03T01:12:24.989Z,1.80
2019-05-03T01:14:57.821Z,1.87
2019-05-03T01:17:28.545Z,1.73
2019-05-03T01:19:58.898Z,1.60
2019-05-03T01:22:32.284Z,1.57
2019-05-03T01:25:02.935Z,1.80
2019-05-03T01:27:33.535Z,1.90
2019-05-03T01:30:05.253Z,1.93
2019-05-03T01:32:36.360Z,1.80
2019-05-03T01:35:07.121Z,2.10
2019-05-03T01:37:38.037Z,1.83
2019-05-03T01:40:09.662Z,1.63
2019-05-03T01:42:42.472Z,1.77
2019-05-03T01:45:12.326Z,1.70
2019-05-03T01:47:53.140Z,2.10
2019-05-03T01:50:34.714Z,1.77
2019-05-03T01:53:05.653Z,1.53
2019-05-03T01:55:53.877Z,1.80
2019-05-03T01:58:24.504Z,1.97
2019-05-03T02:01:16.442Z,1.67
2019-05-03T02:03:54.269Z,1.50
2019-05-03T02:06:23.741Z,1.67
2019-05-03T02:08:55.193Z,2.03
2019-05-03T02:11:28.037Z,2.10
2019-05-03T02:13:58.514Z,2.33
2019-05-03T02:16:29.501Z,1.73
2019-05-03T02:19:02.350Z,2.10
2019-05-03T02:21:32.215Z,2.03
2019-05-03T02:24:03.942Z,1.87
2019-05-03T02:26:34.457Z,1.80
2019-05-03T02:29:04.266Z,1.83
2019-05-03T02:31:36.282Z,1.80
2019-05-03T02:34:07.958Z,1.87
2019-05-03T02:36:38.430Z,1.83
2019-05-03T02:39:13.314Z,2.10
2019-05-03T02:41:45.232Z,1.80
2019-05-03T02:44:16.057Z,1.90
2019-05-03T02:47:15.771Z,2.00
2019-05-03T02:49:56.212Z,2.00
2019-05-03T02:52:36.915Z,2.27
2019-05-03T02:55:08.473Z,1.90
2019-05-03T02:57:39.541Z,1.80
2019-05-03T03:00:15.981Z,2.13
2019-05-03T03:02:48.757Z,1.90
2019-05-03T03:05:19.733Z,2.00
2019-05-03T03:07:52.250Z,2.20
2019-05-03T03:10:22.966Z,2.00
2019-05-03T03:12:55.888Z,2.27
2019-05-03T03:15:27.134Z,2.40
2019-05-03T03:18:00.121Z,2.30
2019-05-03T03:20:31.339Z,2.20
2019-05-03T03:23:05.987Z,1.80
2019-05-03T03:25:40.689Z,1.90
2019-05-03T03:28:11.277Z,2.10
2019-05-03T03:30:57.473Z,2.17
2019-05-03T03:33:28.841Z,2.27
2019-05-03T03:36:29.360Z,2.13
2019-05-03T03:38:35.431Z,2.47
2019-05-03T03:41:06.045Z,2.50
2019-05-03T03:43:36.085Z,2.00
2019-05-03T03:46:08.026Z,2.10
2019-05-03T03:48:39.338Z,2.00
2019-05-03T03:51:11.018Z,2.23
2019-05-03T03:53:42.170Z,2.20
2019-05-03T03:56:15.878Z,2.47
2019-05-03T03:58:46.414Z,2.30
2019-05-03T04:01:17.719Z,2.30
2019-05-03T04:03:50.710Z,2.33
2019-05-03T04:06:26.838Z,2.27
2019-05-03T04:08:57.987Z,2.20
2019-05-03T04:11:28.070Z,2.43
2019-05-03T04:13:57.981Z,2.37
2019-05-03T04:16:39.554Z,2.50
2019-05-03T04:19:17.150Z,2.37
2019-05-03T04:21:46.890Z,2.27
2019-05-03T04:24:19.009Z,2.47
2019-05-03T04:26:53.113Z,1.90
2019-05-03T04:29:25.277Z,2.30
2019-05-03T04:31:56.617Z,2.30
2019-05-03T04:34:27.669Z,2.80
2019-05-03T04:36:58.659Z,2.47
2019-05-03T04:39:29.172Z,2.30
2019-05-03T04:42:01.118Z,2.30
2019-05-03T04:44:31.990Z,2.13
2019-05-03T04:47:02.071Z,2.30
2019-05-03T04:49:32.569Z,2.30
2019-05-03T04:52:05.778Z,2.10
2019-05-03T04:54:56.318Z,2.20
2019-05-03T04:57:39.730Z,2.50
2019-05-03T05:00:00.274Z,2.20
2019-05-03T05:02:30.719Z,2.20
2019-05-03T05:05:02.812Z,2.37
2019-05-03T05:07:35.062Z,2.83
2019-05-03T05:10:07.517Z,2.73
2019-05-03T05:12:37.518Z,2.30
2019-05-03T05:15:08.314Z,1.97
2019-05-03T05:17:51.191Z,2.83
2019-05-03T05:20:31.130Z,2.70
2019-05-03T05:23:01.889Z,2.20
2019-05-03T05:25:37.190Z,2.70
2019-05-03T05:28:15.070Z,1.83
2019-05-03T05:30:48.801Z,2.20
2019-05-03T05:33:24.974Z,2.17
2019-05-03T05:35:54.797Z,2.17
2019-05-03T05:38:29.400Z,2.00
2019-05-03T05:41:00.211Z,2.10
2019-05-03T05:43:30.793Z,2.23
2019-05-03T05:46:02.134Z,2.10
2019-05-03T05:48:42.109Z,2.30
2019-05-03T05:51:15.990Z,2.40
2019-05-03T05:53:46.580Z,2.00
2019-05-03T05:56:41.526Z,2.20
2019-05-03T05:59:24.790Z,2.07
2019-05-03T06:02:04.831Z,2.50
2019-05-03T06:04:35.433Z,2.00
2019-05-03T06:07:24.895Z,2.47
2019-05-03T06:10:10.012Z,2.07
2019-05-03T06:12:55.240Z,2.00
2019-05-03T06:15:45.099Z,2.50
2019-05-03T06:18:24.926Z,2.23
2019-05-03T06:21:14.867Z,2.17
2019-05-03T06:23:50.995Z,2.37
2019-05-03T06:26:41.210Z,1.90
2019-05-03T06:29:11.582Z,1.90
2019-05-03T06:32:01.109Z,2.00
2019-05-03T06:34:31.445Z,2.00
2019-05-03T06:37:04.534Z,1.77
2019-05-03T06:39:35.610Z,1.97
2019-05-03T06:42:10.049Z,2.10
2019-05-03T06:44:39.295Z,2.10
2019-05-03T06:47:10.622Z,1.90
2019-05-03T06:49:44.837Z,1.90
2019-05-03T06:52:14.598Z,2.23
2019-05-03T06:54:45.821Z,2.57
2019-05-03T06:57:17.600Z,2.00
2019-05-03T06:59:56.611Z,1.77
2019-05-03T07:02:55.181Z,1.60
2019-05-03T07:05:45.017Z,1.60
2019-05-03T07:08:34.459Z,1.67
2019-05-03T07:11:05.466Z,1.60
2019-05-03T07:13:36.535Z,1.70
2019-05-03T07:16:07.649Z,1.67
2019-05-03T07:18:38.067Z,1.60
2019-05-03T07:21:08.643Z,1.63
2019-05-03T07:23:40.118Z,1.60
2019-05-03T07:26:10.623Z,2.17
2019-05-03T07:28:46.962Z,1.63
2019-05-03T07:31:15.841Z,1.53
2019-05-03T07:33:46.713Z,1.77
2019-05-03T07:36:16.645Z,1.70
2019-05-03T07:38:47.212Z,1.90
2019-05-03T07:41:18.164Z,1.40
2019-05-03T07:43:50.365Z,1.80
2019-05-03T07:46:20.721Z,1.73
2019-05-03T07:48:51.690Z,1.60
2019-05-03T07:51:24.673Z,1.47
2019-05-03T07:53:56.794Z,1.47
2019-05-03T07:56:35.592Z,1.50
2019-05-03T07:59:07.565Z,1.50
2019-05-03T08:01:45.587Z,1.60
2019-05-03T08:04:15.662Z,1.33
2019-05-03T08:06:46.249Z,1.60
2019-05-03T08:09:16.097Z,1.40
2019-05-03T08:11:46.153Z,1.50
2019-05-03T08:14:18.275Z,1.60
2019-05-03T08:16:51.514Z,1.67
2019-05-03T08:19:23.500Z,1.60
2019-05-03T08:21:56.469Z,1.60
2019-05-03T08:24:27.879Z,1.37
2019-05-03T08:26:58.297Z,1.70
2019-05-03T08:29:29.254Z,1.57
2019-05-03T08:32:06.492Z,1.70
2019-05-03T08:34:55.647Z,1.60
2019-05-03T08:40:28.417Z,1.60
2019-05-03T08:42:58.905Z,1.37
2019-05-03T08:45:30.153Z,1.50
2019-05-03T08:48:00.086Z,1.40
2019-05-03T08:50:30.478Z,1.50
2019-05-03T08:53:01.368Z,1.20
2019-05-03T08:55:35.059Z,1.47
2019-05-03T08:58:05.975Z,1.30
2019-05-03T09:00:38.423Z,1.40
2019-05-03T09:03:08.882Z,1.50
2019-05-03T09:05:39.333Z,1.60
2019-05-03T09:08:09.844Z,1.30
2019-05-03T09:10:54.750Z,1.37
2019-05-03T09:13:25.301Z,1.40
2019-05-03T09:15:55.760Z,1.40
2019-05-03T09:18:28.901Z,1.13
2019-05-03T09:20:59.606Z,1.17
2019-05-03T09:23:30.650Z,1.33
2019-05-03T09:26:01.586Z,1.63
2019-05-03T09:28:34.866Z,1.10
2019-05-03T09:31:05.466Z,1.43
2019-05-03T09:33:35.714Z,1.30
2019-05-03T09:36:06.082Z,1.33
2019-05-03T09:38:40.493Z,1.43
2019-05-03T09:41:11.393Z,1.30
2019-05-03T09:43:41.804Z,1.37
2019-05-03T09:46:14.385Z,1.10
2019-05-03T09:48:46.912Z,1.30
2019-05-03T09:51:17.977Z,1.30
2019-05-03T09:53:55.355Z,1.40
2019-05-03T09:56:48.082Z,1.43
2019-05-03T09:59:14.765Z,1.20
2019-05-03T10:01:48.490Z,1.20
2019-05-03T10:04:22.203Z,1.20
2019-05-03T10:06:54.841Z,1.30
2019-05-03T10:09:26.182Z,1.27
2019-05-03T10:12:07.141Z,1.20
2019-05-03T10:14:38.154Z,1.30
2019-05-03T10:17:17.059Z,1.40
2019-05-03T10:19:49.099Z,1.30
2019-05-03T10:22:21.517Z,1.23
2019-05-03T10:24:52.392Z,1.30
2019-05-03T10:27:25.262Z,1.20
2019-05-03T10:30:09.052Z,1.30
2019-05-03T10:32:35.370Z,1.30
2019-05-03T10:35:08.187Z,1.20
2019-05-03T10:37:40.154Z,1.30
2019-05-03T10:40:11.890Z,1.37
2019-05-03T10:42:44.530Z,1.33
2019-05-03T10:45:15.326Z,1.77
2019-05-03T10:47:45.708Z,1.60
2019-05-03T10:50:16.749Z,1.07
2019-05-03T10:52:52.681Z,1.40
2019-05-03T10:55:25.059Z,1.10
2019-05-03T10:58:16.497Z,1.00
2019-05-03T11:00:53.143Z,1.20
2019-05-03T11:03:22.048Z,1.27
2019-05-03T11:05:54.733Z,1.20
2019-05-03T11:08:25.663Z,1.43
2019-05-03T11:10:55.550Z,1.30
2019-05-03T11:13:26.817Z,1.30
2019-05-03T11:15:57.810Z,1.00
2019-05-03T11:18:28.259Z,1.07
2019-05-03T11:20:59.161Z,1.10
2019-05-03T11:23:29.787Z,1.20
2019-05-03T11:26:00.311Z,1.17
2019-05-03T11:28:32.791Z,1.40
2019-05-03T11:31:21.398Z,1.10
2019-05-03T11:33:52.083Z,1.20
2019-05-03T11:36:31.742Z,1.07
2019-05-03T11:39:02.240Z,1.10
2019-05-03T11:41:35.829Z,1.03
2019-05-03T11:44:24.642Z,1.00
2019-05-03T11:46:55.704Z,1.17
2019-05-03T11:49:26.777Z,1.00
2019-05-03T11:51:58.831Z,0.93
2019-05-03T11:54:29.387Z,1.10
2019-05-03T11:57:01.911Z,1.30
2019-05-03T11:59:34.407Z,1.10
2019-05-03T12:02:18.237Z,1.10
2019-05-03T12:04:49.145Z,1.10
2019-05-03T12:07:38.874Z,1.20
2019-05-03T12:10:17.636Z,1.00
2019-05-03T12:12:40.985Z,1.00
2019-05-03T12:15:10.753Z,1.10
2019-05-03T12:17:51.856Z,1.00
2019-05-03T12:20:18.159Z,1.10
2019-05-03T12:22:47.313Z,1.20
2019-05-03T12:25:18.329Z,1.10
2019-05-03T12:27:51.153Z,1.20
2019-05-03T12:30:24.829Z,1.10
2019-05-03T12:32:54.701Z,1.70
2019-05-03T12:35:24.825Z,4.77
2019-05-03T12:37:55.836Z,2.00
2019-05-03T12:40:26.964Z,1.10
2019-05-03T12:42:57.931Z,1.10
2019-05-03T12:45:28.890Z,0.90
2019-05-03T12:48:01.846Z,1.10
2019-05-03T12:50:34.428Z,0.90
2019-05-03T12:53:04.931Z,1.20
2019-05-03T12:55:35.806Z,0.87
2019-05-03T12:58:08.033Z,0.93
2019-05-03T13:01:15.602Z,0.80
2019-05-03T13:03:50.745Z,0.80
2019-05-03T13:06:25.447Z,1.00
2019-05-03T13:08:55.489Z,1.00
2019-05-03T13:11:26.289Z,1.00
2019-05-03T13:13:56.141Z,0.90
2019-05-03T13:16:27.059Z,1.20
2019-05-03T13:18:56.981Z,1.13
2019-05-03T13:21:27.377Z,1.20
2019-05-03T13:23:58.362Z,1.10
2019-05-03T13:26:29.513Z,1.00
2019-05-03T13:29:01.815Z,0.97
2019-05-03T13:31:34.546Z,0.87
2019-05-03T13:34:05.663Z,0.73
2019-05-03T13:36:36.204Z,2.53
2019-05-03T13:39:13.955Z,1.23
2019-05-03T13:41:38.649Z,1.90
2019-05-03T13:44:10.246Z,1.50
2019-05-03T13:46:40.817Z,1.10
2019-05-03T13:49:12.881Z,1.30
2019-05-03T13:51:45.181Z,1.10
2019-05-03T13:54:15.687Z,1.27
2019-05-03T13:56:46.050Z,7.73
2019-05-03T13:59:21.370Z,1.50
2019-05-03T14:01:54.508Z,4.83
2019-05-03T14:04:25.717Z,2.50
2019-05-03T14:06:56.273Z,5.40
2019-05-03T14:09:26.738Z,6.70
2019-05-03T14:11:56.607Z,2.93
2019-05-03T14:14:27.193Z,1.53
2019-05-03T14:16:57.490Z,1.10
2019-05-03T14:19:34.729Z,1.07
2019-05-03T14:22:08.737Z,1.73
2019-05-03T14:24:40.025Z,1.53
2019-05-03T14:27:12.394Z,1.30
2019-05-03T14:29:45.435Z,1.10
2019-05-03T14:32:25.841Z,1.30
2019-05-03T14:34:48.273Z,1.30
2019-05-03T14:37:19.274Z,1.00
2019-05-03T14:39:49.933Z,1.10
2019-05-03T14:42:19.981Z,1.33
2019-05-03T14:44:55.155Z,1.23
2019-05-03T14:47:25.190Z,1.47
2019-05-03T14:49:55.161Z,1.03
2019-05-03T14:52:28.569Z,1.10
2019-05-03T14:55:06.819Z,1.20
2019-05-03T14:57:44.469Z,1.40
2019-05-03T15:00:35.004Z,3.00
2019-05-03T15:03:09.233Z,1.33
2019-05-03T15:05:39.166Z,1.00
2019-05-03T15:08:09.717Z,1.10
2019-05-03T15:10:39.525Z,0.90
2019-05-03T15:13:09.660Z,1.20
2019-05-03T15:15:40.385Z,1.00
2019-05-03T15:18:10.862Z,0.93
2019-05-03T15:20:41.402Z,1.00
2019-05-03T15:23:14.827Z,1.10
2019-05-03T15:26:06.523Z,1.10
2019-05-03T15:28:36.471Z,1.00
2019-05-03T15:31:06.942Z,1.10
2019-05-03T15:33:37.405Z,1.10
2019-05-03T15:36:09.281Z,1.00
2019-05-03T15:38:40.801Z,1.10
2019-05-03T15:41:14.673Z,0.95
2019-05-03T15:44:15.361Z,1.30
2019-05-03T15:46:57.149Z,1.40
2019-05-03T15:49:27.816Z,1.20
2019-05-03T15:51:58.777Z,1.42
2019-05-03T15:54:29.265Z,1.13
2019-05-03T15:56:59.578Z,1.60
2019-05-03T15:59:29.941Z,1.12
2019-05-03T16:02:01.357Z,1.40
2019-05-03T16:04:32.150Z,1.43
2019-05-03T16:07:02.545Z,1.40
2019-05-03T16:09:35.242Z,1.80
2019-05-03T16:12:06.650Z,1.67
2019-05-03T16:14:40.058Z,1.77
2019-05-03T16:17:11.027Z,1.90
2019-05-03T16:19:45.167Z,2.10
2019-05-03T16:22:16.917Z,1.90
2019-05-03T16:24:48.890Z,1.50
2019-05-03T16:27:47.149Z,1.30
2019-05-03T16:30:36.598Z,1.50
2019-05-03T16:33:08.372Z,1.50
2019-05-03T16:35:39.193Z,1.57
2019-05-03T16:38:10.169Z,1.40
2019-05-03T16:40:40.702Z,1.47
2019-05-03T16:43:10.036Z,1.50
2019-05-03T16:45:40.561Z,1.23
2019-05-03T16:48:10.565Z,1.60
2019-05-03T16:50:41.033Z,1.40
2019-05-03T16:53:11.414Z,1.90
2019-05-03T16:55:44.355Z,1.50
2019-05-03T16:58:16.797Z,1.40
2019-05-03T17:00:47.058Z,1.87
2019-05-03T17:03:20.242Z,1.20
2019-05-03T17:06:10.581Z,1.53
2019-05-03T17:09:14.405Z,1.90
2019-05-03T17:11:47.609Z,1.57
2019-05-03T17:14:17.603Z,1.93
2019-05-03T17:16:47.997Z,1.97
2019-05-03T17:19:19.737Z,1.70
2019-05-03T17:21:52.506Z,1.70
2019-05-03T17:24:24.431Z,1.60
2019-05-03T17:26:55.162Z,1.90
2019-05-03T17:29:26.164Z,1.47
2019-05-03T17:31:57.113Z,1.67
2019-05-03T17:34:27.621Z,1.43
2019-05-03T17:36:58.628Z,1.70
2019-05-03T17:40:05.287Z,1.47
2019-05-03T17:42:54.613Z,1.50
2019-05-03T17:45:29.689Z,1.90
2019-05-03T17:48:00.025Z,1.40
2019-05-03T17:50:31.065Z,1.70
2019-05-03T17:53:14.745Z,1.40
2019-05-03T17:56:05.422Z,1.40
2019-05-03T17:58:46.545Z,1.53
2019-05-03T18:01:38.850Z,1.60
2019-05-03T18:04:17.345Z,1.63
2019-05-03T18:06:58.334Z,1.80
2019-05-03T18:09:34.553Z,1.63
2019-05-03T18:12:06.752Z,1.83
2019-05-03T18:14:37.730Z,1.70
2019-05-03T18:17:08.753Z,1.60
2019-05-03T18:19:39.577Z,1.90
2019-05-03T18:22:10.641Z,1.60
2019-05-03T18:24:40.743Z,1.80
2019-05-03T18:27:11.257Z,1.60
2019-05-03T18:29:42.204Z,1.90
2019-05-03T18:32:14.712Z,1.80
2019-05-03T18:34:45.833Z,2.17
2019-05-03T18:37:16.181Z,1.93
2019-05-03T18:39:46.233Z,1.60
2019-05-03T18:42:25.589Z,2.03
2019-05-03T18:44:58.929Z,1.80
2019-05-03T18:47:29.873Z,1.90
2019-05-03T18:50:00.730Z,1.63
2019-05-03T18:52:30.593Z,1.70
2019-05-03T18:55:01.022Z,1.60
2019-05-03T18:57:32.702Z,1.80
2019-05-03T19:00:07.937Z,1.87
2019-05-03T19:02:35.575Z,1.60
2019-05-03T19:05:07.001Z,1.90
2019-05-03T19:08:01.289Z,1.90
2019-05-03T19:10:41.660Z,1.90
2019-05-03T19:13:20.529Z,1.90
2019-05-03T19:15:50.869Z,1.80
2019-05-03T19:18:40.465Z,2.00
2019-05-03T19:21:11.913Z,1.93
2019-05-03T19:23:44.770Z,2.13
2019-05-03T19:26:14.842Z,1.80
2019-05-03T19:28:44.864Z,2.30
2019-05-03T19:31:16.273Z,2.20
2019-05-03T19:33:46.264Z,1.87
2019-05-03T19:36:16.527Z,1.80
2019-05-03T19:38:48.485Z,2.37
2019-05-03T19:41:20.995Z,2.40
2019-05-03T19:43:51.230Z,3.13
2019-05-03T19:46:24.845Z,2.40
2019-05-03T19:48:56.759Z,2.43
2019-05-03T19:51:26.552Z,3.03
2019-05-03T19:53:57.625Z,2.03
2019-05-03T19:56:30.293Z,2.30
2019-05-03T19:59:04.645Z,2.10
2019-05-03T20:01:55.189Z,2.40
2019-05-03T20:04:34.237Z,2.23
2019-05-03T20:07:28.846Z,2.43
2019-05-03T20:09:59.249Z,1.97
2019-05-03T20:12:29.545Z,2.77
2019-05-03T20:15:00.497Z,2.40
2019-05-03T20:17:31.427Z,2.30
2019-05-03T20:20:02.197Z,2.33
2019-05-03T20:22:32.778Z,2.40
2019-05-03T20:25:04.686Z,2.43
2019-05-03T20:27:35.701Z,2.20
2019-05-03T20:30:06.442Z,2.30
2019-05-03T20:32:37.273Z,2.60
2019-05-03T20:35:16.188Z,2.40
2019-05-03T20:37:41.685Z,2.67
2019-05-03T20:40:12.409Z,2.77
2019-05-03T20:43:04.817Z,2.97
2019-05-03T20:46:12.653Z,2.63
2019-05-03T20:48:44.886Z,2.80
2019-05-03T20:51:15.001Z,2.80
2019-05-03T20:53:45.127Z,2.23
2019-05-03T20:56:15.613Z,2.43
2019-05-03T20:58:46.045Z,2.37
2019-05-03T21:01:15.717Z,2.20
2019-05-03T21:03:47.611Z,2.30
2019-05-03T21:06:18.240Z,2.37
2019-05-03T21:08:53.416Z,2.10
2019-05-03T21:11:21.221Z,2.13
2019-05-03T21:13:51.961Z,2.40
2019-05-03T21:16:36.885Z,2.00
2019-05-03T21:19:39.259Z,2.50
2019-05-03T21:22:35.597Z,2.50
2019-05-03T21:25:11.457Z,2.57
2019-05-03T21:27:41.910Z,2.50
2019-05-03T21:30:12.221Z,2.50
2019-05-03T21:32:44.400Z,2.50
2019-05-03T21:35:14.925Z,2.33
2019-05-03T21:37:46.061Z,2.77
2019-05-03T21:40:17.345Z,2.73
2019-05-03T21:42:48.491Z,2.77
2019-05-03T21:45:24.707Z,2.50
2019-05-03T21:47:59.766Z,2.30
2019-05-03T21:50:30.285Z,3.00
2019-05-03T21:53:06.778Z,2.60
2019-05-03T21:55:38.681Z,2.97
2019-05-03T21:58:12.025Z,2.57
2019-05-03T22:01:06.907Z,2.43
2019-05-03T22:03:38.713Z,2.37
2019-05-03T22:06:09.181Z,2.30
2019-05-03T22:08:41.142Z,2.70
2019-05-03T22:11:10.977Z,2.27
2019-05-03T22:13:43.152Z,2.07
2019-05-03T22:16:16.349Z,2.10
2019-05-03T22:18:46.241Z,2.77
2019-05-03T22:21:23.478Z,2.40
2019-05-03T22:24:11.577Z,2.60
2019-05-03T22:26:59.713Z,2.27
2019-05-03T22:29:30.933Z,2.37
2019-05-03T22:32:02.004Z,2.30
2019-05-03T22:34:32.277Z,2.80
2019-05-03T22:37:02.150Z,2.57
2019-05-03T22:39:32.076Z,2.80
2019-05-03T22:42:02.070Z,3.00
2019-05-03T22:44:35.460Z,3.20
2019-05-03T22:47:05.508Z,2.80
2019-05-03T22:49:37.494Z,2.63
2019-05-03T22:52:08.604Z,2.87
2019-05-03T22:54:39.033Z,3.33
2019-05-03T22:57:09.944Z,2.80
2019-05-03T22:59:40.393Z,2.63
2019-05-03T23:02:10.255Z,2.70
2019-05-03T23:04:40.716Z,3.00
2019-05-03T23:07:14.677Z,2.80
2019-05-03T23:09:44.837Z,2.60
2019-05-03T23:12:25.961Z,2.87
2019-05-03T23:14:56.405Z,2.77
2019-05-03T23:17:26.877Z,2.60
2019-05-03T23:20:04.522Z,2.60
2019-05-03T23:22:35.260Z,2.40
2019-05-03T23:25:06.330Z,2.67
2019-05-03T23:27:36.281Z,2.60
2019-05-03T23:30:06.257Z,3.00
2019-05-03T23:32:36.153Z,2.70
2019-05-03T23:35:06.868Z,2.57
2019-05-03T23:37:37.104Z,2.80
2019-05-03T23:40:07.536Z,2.63
2019-05-03T23:42:37.408Z,2.73
2019-05-03T23:45:08.896Z,2.20
2019-05-03T23:47:46.605Z,2.60
2019-05-03T23:50:19.544Z,2.53
2019-05-03T23:52:50.541Z,2.67
2019-05-03T23:55:39.007Z,2.70
2019-05-03T23:58:09.437Z,2.20
